Time;durP1;ratioP1;P1;durP2;ratioP2;P2;SDS_P1;SDS_P2;PMS_P1;PMS_P2;Temp;Humidity;BMP_temperature;BMP_pressure;BME280_temperature;BME280_humidity;BME280_pressure;Samples;Min_cycle;Max_cycle;Signal;HPM_P1;HPM_P2
2021/04/30 00:00:45;;;;;;;18.17;11.73;;;6.60;96.40;;;;;;4993642;28;20563;-81
2021/04/30 00:03:19;;;;;;;15.02;9.20;;;6.60;96.60;;;;;;4992812;28;20218;-77
2021/04/30 00:05:46;;;;;;;12.00;9.40;;;6.60;96.70;;;;;;4986467;28;20676;-78
2021/04/30 00:08:13;;;;;;;10.13;9.10;;;6.70;96.60;;;;;;4991792;28;20233;-78
2021/04/30 00:10:41;;;;;;;11.80;10.57;;;6.60;96.60;;;;;;4991558;28;20286;-79
2021/04/30 00:13:08;;;;;;;21.30;10.90;;;6.70;96.70;;;;;;4993136;28;20237;-80
2021/04/30 00:15:35;;;;;;;13.48;9.38;;;6.70;96.30;;;;;;4993317;28;20213;-79
2021/04/30 00:18:05;;;;;;;10.65;9.43;;;6.80;96.10;;;;;;4991784;28;20219;-78
2021/04/30 00:20:37;;;;;;;9.80;8.80;;;6.80;96.10;;;;;;4988305;28;20219;-78
2021/04/30 00:23:11;;;;;;;10.52;8.70;;;6.80;96.10;;;;;;4981728;28;20222;-79
2021/04/30 00:25:40;;;;;;;12.30;9.30;;;6.80;95.90;;;;;;4987739;28;20217;-81
2021/04/30 00:28:07;;;;;;;14.73;10.82;;;6.70;96.20;;;;;;5004787;28;20238;-79
2021/04/30 00:30:35;;;;;;;11.52;10.07;;;6.70;96.50;;;;;;4993006;28;20232;-80
2021/04/30 00:33:01;;;;;;;22.80;10.23;;;6.70;96.50;;;;;;4991429;28;20580;-77
2021/04/30 00:35:30;;;;;;;10.52;9.18;;;6.70;96.30;;;;;;4981738;28;20685;-80
2021/04/30 00:37:59;;;;;;;11.80;9.90;;;6.70;96.50;;;;;;4991407;28;20305;-77
2021/04/30 00:40:25;;;;;;;18.33;10.65;;;6.70;96.50;;;;;;4991214;28;20282;-77
2021/04/30 00:42:53;;;;;;;13.07;11.68;;;6.60;96.70;;;;;;4992559;28;20302;-77
2021/04/30 00:45:23;;;;;;;15.65;10.85;;;6.70;96.60;;;;;;4992484;28;20676;-78
2021/04/30 00:47:53;;;;;;;17.35;9.85;;;6.60;96.70;;;;;;4987980;28;20211;-80
2021/04/30 00:50:23;;;;;;;12.23;10.90;;;6.60;96.80;;;;;;4982625;28;20210;-79
2021/04/30 00:52:50;;;;;;;13.27;10.30;;;6.60;97.20;;;;;;4992753;28;20321;-79
2021/04/30 00:55:18;;;;;;;11.88;10.50;;;6.60;97.10;;;;;;4987985;28;20214;-80
2021/04/30 00:57:54;;;;;;;14.88;11.20;;;6.60;97.20;;;;;;4992202;28;20230;-78
2021/04/30 01:00:23;;;;;;;14.90;11.00;;;6.60;97.20;;;;;;4991212;28;20214;-78
2021/04/30 01:02:50;;;;;;;13.55;12.15;;;6.60;97.30;;;;;;4992331;28;20238;-79
2021/04/30 01:05:17;;;;;;;13.48;11.07;;;6.50;97.50;;;;;;4974557;28;20190;-81
2021/04/30 01:07:44;;;;;;;11.27;10.07;;;6.50;97.50;;;;;;4991888;28;20655;-80
2021/04/30 01:10:11;;;;;;;16.75;12.45;;;6.50;97.60;;;;;;4990326;28;20191;-78
2021/04/30 01:12:38;;;;;;;12.27;11.02;;;6.50;97.60;;;;;;4992152;28;20642;-79
2021/04/30 01:15:06;;;;;;;16.42;10.95;;;6.50;97.50;;;;;;4990727;28;20362;-77
2021/04/30 01:17:36;;;;;;;13.05;11.05;;;6.50;97.70;;;;;;4971116;28;20222;-80
2021/04/30 01:20:07;;;;;;;19.20;11.30;;;6.40;98.20;;;;;;4986900;28;20214;-79
2021/04/30 01:22:35;;;;;;;13.18;11.43;;;6.40;98.40;;;;;;4976221;28;20297;-80
2021/04/30 01:25:04;;;;;;;13.68;9.95;;;6.40;98.50;;;;;;4991003;28;20213;-77
2021/04/30 01:27:31;;;;;;;12.15;10.30;;;6.40;98.80;;;;;;4999026;28;20257;-79
2021/04/30 01:29:58;;;;;;;14.35;11.35;;;6.40;98.30;;;;;;4990784;28;20194;-79
2021/04/30 01:32:24;;;;;;;14.75;12.07;;;6.40;98.20;;;;;;4991797;28;20313;-78
2021/04/30 01:34:51;;;;;;;13.98;10.23;;;6.40;98.30;;;;;;4989007;28;20639;-78
2021/04/30 01:37:19;;;;;;;13.68;10.93;;;6.30;98.60;;;;;;4989480;28;20260;-78
2021/04/30 01:39:45;;;;;;;15.60;10.88;;;6.30;98.50;;;;;;4991203;28;20211;-79
2021/04/30 01:42:12;;;;;;;11.40;9.82;;;6.30;98.50;;;;;;4973878;28;20214;-79
2021/04/30 01:44:40;;;;;;;13.23;10.63;;;6.30;98.90;;;;;;4975595;28;20190;-78
2021/04/30 01:47:10;;;;;;;13.02;11.75;;;6.30;99.00;;;;;;4991011;28;20258;-78
2021/04/30 01:49:36;;;;;;;15.65;11.30;;;6.30;99.20;;;;;;4990531;28;20551;-79
2021/04/30 01:52:03;;;;;;;14.93;10.75;;;6.20;99.40;;;;;;4980111;28;20273;-79
2021/04/30 01:54:30;;;;;;;15.73;11.35;;;6.20;99.40;;;;;;4992068;28;20552;-79
2021/04/30 01:56:57;;;;;;;12.75;11.35;;;6.30;99.40;;;;;;4988976;28;20218;-78
2021/04/30 01:59:23;;;;;;;12.80;11.13;;;6.30;99.50;;;;;;4990453;28;21644;-79
2021/04/30 02:01:50;;;;;;;15.20;12.13;;;6.30;99.00;;;;;;4991556;28;20204;-76
2021/04/30 02:04:17;;;;;;;12.93;11.50;;;6.30;98.90;;;;;;4992261;28;20281;-83
2021/04/30 02:06:46;;;;;;;15.55;11.50;;;6.30;99.80;;;;;;4990479;28;20210;-77
2021/04/30 02:09:13;;;;;;;18.92;13.05;;;6.20;99.20;;;;;;4989850;28;20219;-77
2021/04/30 02:11:39;;;;;;;15.77;11.93;;;6.20;99.40;;;;;;4989960;28;20193;-80
2021/04/30 02:14:06;;;;;;;17.30;12.35;;;6.20;99.20;;;;;;4991460;28;20272;-82
2021/04/30 02:16:33;;;;;;;14.25;12.48;;;6.20;99.40;;;;;;4991536;28;20775;-79
2021/04/30 02:19:00;;;;;;;14.75;13.20;;;6.20;99.50;;;;;;4988142;28;20215;-79
2021/04/30 02:21:27;;;;;;;14.32;12.63;;;6.20;99.80;;;;;;4990701;28;20218;-80
2021/04/30 02:23:55;;;;;;;17.63;12.95;;;6.20;99.40;;;;;;4991440;28;20305;-79
2021/04/30 02:26:25;;;;;;;15.43;13.77;;;6.30;99.40;;;;;;4972418;28;20633;-79
2021/04/30 02:28:52;;;;;;;15.05;12.82;;;6.20;99.60;;;;;;4991333;28;20280;-79
2021/04/30 02:31:18;;;;;;;14.25;12.77;;;6.20;99.60;;;;;;4989960;28;20577;-78
2021/04/30 02:33:45;;;;;;;14.48;12.98;;;6.20;99.90;;;;;;4990114;28;20214;-79
2021/04/30 02:36:12;;;;;;;17.20;13.18;;;6.20;99.90;;;;;;4979167;28;20238;-78
2021/04/30 02:38:38;;;;;;;14.20;12.63;;;6.30;99.90;;;;;;4989235;28;20238;-82
2021/04/30 02:41:05;;;;;;;15.38;13.25;;;6.20;99.90;;;;;;4989888;28;20225;-79
2021/04/30 02:43:31;;;;;;;16.00;13.18;;;6.30;99.90;;;;;;4990587;28;20588;-78
2021/04/30 02:46:00;;;;;;;18.17;13.85;;;6.30;99.90;;;;;;4991344;28;20198;-79
2021/04/30 02:50:53;;;;;;;17.80;14.27;;;6.40;99.70;;;;;;4990921;28;20233;-81
2021/04/30 02:53:20;;;;;;;14.57;12.15;;;6.50;99.90;;;;;;4986985;28;20238;-77
2021/04/30 02:55:49;;;;;;;15.05;11.55;;;6.40;99.60;;;;;;4989635;28;20558;-79
2021/04/30 02:58:15;;;;;;;14.32;12.10;;;6.50;99.40;;;;;;4993944;28;20226;-80
2021/04/30 03:00:42;;;;;;;14.18;12.75;;;6.50;99.50;;;;;;4993890;28;20225;-79
2021/04/30 03:03:08;;;;;;;16.35;12.90;;;6.40;99.50;;;;;;4997032;28;20341;-79
2021/04/30 03:05:35;;;;;;;17.05;12.95;;;6.30;99.80;;;;;;4999993;28;20318;-79
2021/04/30 03:08:02;;;;;;;13.60;11.85;;;6.30;99.90;;;;;;4993186;28;20210;-78
2021/04/30 03:10:28;;;;;;;17.80;12.88;;;6.30;99.90;;;;;;4993635;28;20264;-78
2021/04/30 03:12:55;;;;;;;16.33;13.07;;;6.30;99.90;;;;;;4992792;28;20220;-79
2021/04/30 03:15:22;;;;;;;18.67;12.75;;;6.30;99.90;;;;;;4993583;28;20191;-79
2021/04/30 03:17:49;;;;;;;14.35;12.93;;;6.40;99.90;;;;;;4993130;28;20232;-78
2021/04/30 03:20:17;;;;;;;14.70;11.85;;;6.40;99.90;;;;;;4992708;28;20264;-80
2021/04/30 03:22:46;;;;;;;15.80;11.82;;;6.40;99.90;;;;;;4992862;28;20249;-78
2021/04/30 03:25:15;;;;;;;13.80;11.60;;;6.40;99.90;;;;;;4992324;28;20215;-78
2021/04/30 03:27:42;;;;;;;16.70;12.77;;;6.40;99.90;;;;;;4992912;28;20303;-81
2021/04/30 03:30:09;;;;;;;14.82;12.05;;;6.50;99.90;;;;;;4976883;28;20190;-82
2021/04/30 03:32:36;;;;;;;14.60;13.15;;;6.50;99.90;;;;;;4993931;28;20250;-76
2021/04/30 03:35:06;;;;;;;14.00;11.77;;;6.60;99.70;;;;;;4992407;28;20195;-83
2021/04/30 03:37:33;;;;;;;17.33;13.25;;;6.60;99.60;;;;;;4992590;28;20215;-81
2021/04/30 03:40:00;;;;;;;14.85;11.40;;;6.60;99.70;;;;;;4991862;28;20210;-78
2021/04/30 03:42:27;;;;;;;15.50;11.35;;;6.60;99.90;;;;;;4992818;28;20268;-79
2021/04/30 03:44:53;;;;;;;19.05;12.15;;;6.60;99.90;;;;;;4994224;28;20272;-81
2021/04/30 03:47:20;;;;;;;18.08;12.15;;;6.60;99.90;;;;;;4989166;28;20285;-81
2021/04/30 03:49:47;;;;;;;13.32;11.77;;;6.60;99.90;;;;;;4991861;28;20198;-80
2021/04/30 03:52:13;;;;;;;16.02;12.35;;;6.70;99.90;;;;;;4992411;28;20218;-78
2021/04/30 03:54:40;;;;;;;12.57;11.27;;;6.70;99.90;;;;;;4993815;28;20182;-81
2021/04/30 03:57:06;;;;;;;12.68;11.30;;;6.70;99.90;;;;;;4983178;28;20217;-81
2021/04/30 03:59:33;;;;;;;18.50;12.63;;;6.70;99.90;;;;;;4988819;28;20226;-82
2021/04/30 04:01:59;;;;;;;16.15;12.35;;;6.70;99.90;;;;;;4980950;28;20190;-79
2021/04/30 04:04:27;;;;;;;17.60;12.25;;;6.80;99.80;;;;;;4991948;28;20190;-79
2021/04/30 04:06:53;;;;;;;15.10;11.63;;;6.80;99.90;;;;;;4992935;28;20293;-78
2021/04/30 04:09:28;;;;;;;15.52;12.43;;;6.80;99.90;;;;;;4992637;28;20553;-78
2021/04/30 04:11:54;;;;;;;17.98;12.70;;;6.70;99.90;;;;;;4971617;28;20204;-79
2021/04/30 04:14:24;;;;;;;12.90;11.20;;;6.80;99.90;;;;;;4983502;28;20195;-80
2021/04/30 04:16:50;;;;;;;17.92;11.40;;;6.80;99.60;;;;;;4992427;28;20252;-81
2021/04/30 04:19:24;;;;;;;13.18;11.25;;;6.80;99.60;;;;;;4988812;28;20191;-80
2021/04/30 04:21:53;;;;;;;13.00;10.93;;;6.70;99.90;;;;;;4992904;28;20507;-77
2021/04/30 04:24:26;;;;;;;15.48;13.32;;;6.70;99.70;;;;;;4993498;28;20333;-79
2021/04/30 04:26:55;;;;;;;13.00;11.63;;;6.80;99.90;;;;;;4990912;28;20550;-79
2021/04/30 04:29:22;;;;;;;14.25;11.40;;;6.80;99.90;;;;;;4992004;28;20652;-80
2021/04/30 04:31:51;;;;;;;16.83;12.43;;;6.70;99.90;;;;;;4992999;28;20194;-80
2021/04/30 04:34:17;;;;;;;15.07;11.23;;;6.70;99.90;;;;;;4991013;28;20194;-79
2021/04/30 04:36:46;;;;;;;17.58;12.13;;;6.70;99.90;;;;;;5001960;28;20632;-77
2021/04/30 04:39:13;;;;;;;16.27;12.10;;;6.80;99.80;;;;;;4991110;28;20215;-79
2021/04/30 04:41:39;;;;;;;16.45;11.05;;;6.90;99.30;;;;;;4983329;28;20185;-80
2021/04/30 04:44:08;;;;;;;13.50;10.88;;;6.80;99.80;;;;;;4991121;28;20696;-80
2021/04/30 04:46:35;;;;;;;19.48;12.23;;;6.90;99.80;;;;;;4993080;28;20202;-79
2021/04/30 04:49:04;;;;;;;24.75;12.63;;;6.90;99.50;;;;;;4988979;28;20455;-78
2021/04/30 04:51:34;;;;;;;14.18;12.77;;;6.90;99.60;;;;;;4993302;28;20192;-80
2021/04/30 04:54:01;;;;;;;15.27;12.00;;;6.90;99.90;;;;;;4990708;28;20293;-79
2021/04/30 04:56:34;;;;;;;16.83;12.20;;;6.90;99.50;;;;;;4989803;28;20211;-78
2021/04/30 04:59:03;;;;;;;14.43;11.52;;;7.00;99.50;;;;;;4983979;28;20249;-78
2021/04/30 05:01:30;;;;;;;23.30;13.57;;;7.00;99.70;;;;;;4992704;28;20265;-78
2021/04/30 05:03:56;;;;;;;15.85;11.68;;;7.00;99.30;;;;;;4991166;28;20234;-79
2021/04/30 05:06:26;;;;;;;14.05;12.55;;;7.00;99.60;;;;;;4991676;28;20206;-79
2021/04/30 05:08:53;;;;;;;16.85;12.55;;;7.00;99.50;;;;;;4967662;28;20210;-79
2021/04/30 05:11:19;;;;;;;17.70;13.23;;;7.10;99.60;;;;;;5006385;28;20191;-77
2021/04/30 05:13:48;;;;;;;13.32;11.93;;;7.00;99.40;;;;;;4992008;28;20265;-79
2021/04/30 05:16:17;;;;;;;19.58;12.60;;;7.10;99.70;;;;;;4990903;28;20692;-83
2021/04/30 05:18:48;;;;;;;16.92;13.25;;;7.00;99.40;;;;;;4990361;28;20720;-78
2021/04/30 05:21:17;;;;;;;15.30;12.00;;;7.10;99.00;;;;;;4989681;28;20206;-76
2021/04/30 05:23:44;;;;;;;15.48;11.80;;;7.10;98.60;;;;;;4991836;28;20221;-76
2021/04/30 05:26:13;;;;;;;13.70;12.32;;;7.10;98.60;;;;;;4991342;28;20289;-80
2021/04/30 05:28:49;;;;;;;15.43;12.68;;;7.10;98.70;;;;;;4972471;28;20775;-77
2021/04/30 05:31:18;;;;;;;23.25;13.10;;;7.10;98.80;;;;;;4969310;28;20222;-78
2021/04/30 05:33:47;;;;;;;15.52;13.23;;;7.10;98.80;;;;;;4985807;28;20714;-78
2021/04/30 05:36:18;;;;;;;15.20;11.82;;;7.10;99.30;;;;;;4987810;28;20577;-78
2021/04/30 05:38:44;;;;;;;22.60;14.95;;;7.20;99.10;;;;;;4990324;28;20288;-78
2021/04/30 05:41:13;;;;;;;14.77;13.15;;;7.10;99.30;;;;;;4989631;28;20616;-81
2021/04/30 05:43:43;;;;;;;19.13;11.80;;;7.20;99.30;;;;;;4991771;28;20244;-78
2021/04/30 05:46:17;;;;;;;15.27;12.43;;;7.30;98.90;;;;;;4991505;28;20284;-79
2021/04/30 05:48:45;;;;;;;16.73;13.88;;;7.40;98.70;;;;;;4986507;28;20203;-78
2021/04/30 05:51:12;;;;;;;13.65;12.15;;;7.40;98.80;;;;;;4986819;28;20568;-76
2021/04/30 05:53:38;;;;;;;18.58;13.95;;;7.50;98.70;;;;;;4987153;28;20660;-80
2021/04/30 05:56:27;;;;;;;13.75;11.55;;;7.50;98.60;;;;;;4977040;28;20623;-79
2021/04/30 05:58:54;;;;;;;19.52;13.45;;;7.60;98.00;;;;;;4989972;28;20230;-78
2021/04/30 06:01:22;;;;;;;13.98;12.55;;;7.60;97.90;;;;;;4991223;28;20750;-77
2021/04/30 06:03:49;;;;;;;22.23;14.15;;;7.60;98.30;;;;;;4991198;28;20210;-75
2021/04/30 06:06:16;;;;;;;16.48;12.60;;;7.70;97.90;;;;;;4990077;28;20209;-81
2021/04/30 06:08:43;;;;;;;14.77;13.18;;;7.70;98.40;;;;;;4989420;28;20283;-78
2021/04/30 06:11:10;;;;;;;17.42;13.55;;;7.80;97.40;;;;;;4983688;28;20199;-80
2021/04/30 06:13:39;;;;;;;16.13;13.75;;;7.90;97.70;;;;;;4990786;28;20214;-76
2021/04/30 06:16:05;;;;;;;16.98;13.65;;;7.90;97.50;;;;;;4991610;28;20217;-78
2021/04/30 06:18:35;;;;;;;15.63;13.98;;;8.00;97.50;;;;;;4990400;28;20225;-79
2021/04/30 06:21:05;;;;;;;15.88;13.27;;;7.90;97.30;;;;;;4982072;28;20230;-80
2021/04/30 06:23:32;;;;;;;18.13;13.52;;;8.10;97.00;;;;;;4989421;28;20216;-77
2021/04/30 06:25:58;;;;;;;26.63;13.38;;;8.20;96.60;;;;;;4990089;28;20238;-78
2021/04/30 06:28:33;;;;;;;17.23;13.80;;;8.20;95.80;;;;;;4990609;28;20223;-76
2021/04/30 06:31:05;;;;;;;19.20;14.13;;;8.20;95.80;;;;;;4983023;28;20181;-82
2021/04/30 06:33:33;;;;;;;17.05;14.05;;;8.20;96.60;;;;;;4985585;28;20219;-78
2021/04/30 06:35:59;;;;;;;18.17;13.95;;;8.20;96.30;;;;;;4982835;28;20210;-78
2021/04/30 06:38:29;;;;;;;24.15;13.73;;;8.30;95.70;;;;;;4993581;28;20366;-76
2021/04/30 06:41:02;;;;;;;19.35;14.43;;;8.30;95.20;;;;;;4992905;28;20206;-78
2021/04/30 06:43:29;;;;;;;15.65;14.07;;;8.50;95.10;;;;;;4994436;28;20246;-77
2021/04/30 06:45:55;;;;;;;16.95;13.82;;;8.70;94.50;;;;;;4993916;28;20241;-83
2021/04/30 06:48:22;;;;;;;16.52;13.93;;;8.80;94.60;;;;;;4991580;28;20223;-77
2021/04/30 06:50:56;;;;;;;18.23;15.95;;;8.80;93.80;;;;;;4993532;28;20738;-79
2021/04/30 06:53:23;;;;;;;21.73;16.70;;;8.90;93.90;;;;;;4994955;28;20222;-78
2021/04/30 06:55:50;;;;;;;16.35;13.77;;;8.90;93.20;;;;;;4993781;28;20321;-76
2021/04/30 06:58:19;;;;;;;17.15;14.98;;;8.80;93.00;;;;;;4991192;28;20700;-77
2021/04/30 07:00:46;;;;;;;22.67;15.38;;;8.80;92.80;;;;;;4993872;28;20213;-76
2021/04/30 07:03:12;;;;;;;19.58;15.45;;;8.80;93.20;;;;;;4993084;28;20230;-80
2021/04/30 07:05:57;;;;;;;19.27;14.85;;;8.70;93.10;;;;;;4994704;28;20257;-78
2021/04/30 07:08:31;;;;;;;17.90;15.80;;;8.70;93.10;;;;;;4994871;28;20222;-76
2021/04/30 07:11:01;;;;;;;20.75;17.27;;;8.70;93.00;;;;;;4991628;28;20183;-77
2021/04/30 07:13:32;;;;;;;22.42;17.73;;;8.80;93.10;;;;;;4993084;28;20222;-79
2021/04/30 07:15:58;;;;;;;20.20;17.73;;;8.70;92.90;;;;;;4994322;28;20202;-77
2021/04/30 07:18:33;;;;;;;24.23;17.55;;;8.70;93.10;;;;;;4993896;28;20577;-79
2021/04/30 07:21:05;;;;;;;23.35;16.52;;;8.80;92.80;;;;;;4992716;28;20241;-79
2021/04/30 07:23:43;;;;;;;21.45;17.25;;;8.70;93.20;;;;;;4994263;28;20629;-78
2021/04/30 07:26:10;;;;;;;22.13;17.10;;;8.80;93.00;;;;;;4992335;28;20214;-79
2021/04/30 07:28:37;;;;;;;22.30;15.75;;;8.80;92.90;;;;;;4983981;28;20581;-78
2021/04/30 07:31:04;;;;;;;21.30;15.43;;;8.80;93.00;;;;;;4989572;28;20194;-79
2021/04/30 07:33:31;;;;;;;21.08;16.13;;;9.00;92.10;;;;;;4991181;28;20759;-76
2021/04/30 07:36:10;;;;;;;19.42;16.63;;;9.00;91.90;;;;;;4993917;28;20673;-76
2021/04/30 07:38:37;;;;;;;22.70;17.83;;;9.00;91.80;;;;;;4991725;28;20635;-79
2021/04/30 07:41:12;;;;;;;23.20;16.85;;;9.00;91.70;;;;;;4980166;28;20296;-79
2021/04/30 07:43:42;;;;;;;25.42;16.90;;;9.10;91.80;;;;;;4990798;28;20250;-77
2021/04/30 07:46:09;;;;;;;23.15;17.98;;;9.10;92.10;;;;;;4976129;28;20202;-78
2021/04/30 07:48:48;;;;;;;20.02;16.60;;;9.10;91.70;;;;;;4992404;28;20273;-77
2021/04/30 07:51:25;;;;;;;20.95;17.77;;;9.10;91.50;;;;;;4976946;28;20194;-78
2021/04/30 07:53:52;;;;;;;19.08;17.08;;;9.10;91.30;;;;;;4982557;28;20230;-78
2021/04/30 07:56:18;;;;;;;19.20;16.90;;;9.10;91.50;;;;;;4992605;28;20202;-78
2021/04/30 07:58:45;;;;;;;18.15;16.10;;;9.10;91.40;;;;;;4991594;28;20296;-77
2021/04/30 08:01:14;;;;;;;19.92;17.02;;;9.20;90.70;;;;;;4992078;28;20202;-78
2021/04/30 08:03:46;;;;;;;20.10;17.13;;;9.20;90.50;;;;;;4990559;28;20234;-77
2021/04/30 08:06:15;;;;;;;18.73;16.67;;;9.10;90.60;;;;;;4992871;28;20209;-78
2021/04/30 08:08:43;;;;;;;21.67;16.88;;;9.10;90.70;;;;;;4992023;28;20214;-76
2021/04/30 08:11:10;;;;;;;20.23;16.67;;;9.10;90.90;;;;;;4979256;28;20206;-76
2021/04/30 08:13:37;;;;;;;16.52;14.68;;;9.00;90.80;;;;;;4991235;28;20218;-76
2021/04/30 08:16:03;;;;;;;18.80;16.65;;;9.00;90.90;;;;;;4990974;28;20210;-76
2021/04/30 08:18:33;;;;;;;20.05;16.90;;;8.90;91.40;;;;;;4991755;28;20221;-78
2021/04/30 08:21:02;;;;;;;22.15;16.92;;;8.90;91.80;;;;;;4980143;28;20214;-77
2021/04/30 08:23:29;;;;;;;19.90;17.20;;;9.00;91.20;;;;;;4992512;28;20214;-78
2021/04/30 08:25:59;;;;;;;18.73;16.02;;;9.10;91.60;;;;;;4987189;28;20230;-78
2021/04/30 08:28:29;;;;;;;18.63;14.80;;;9.20;91.90;;;;;;4990084;28;20218;-76
2021/04/30 08:30:59;;;;;;;20.90;17.45;;;9.30;90.70;;;;;;4988286;28;20195;-79
2021/04/30 08:33:37;;;;;;;18.98;16.70;;;9.20;91.50;;;;;;4984940;28;20293;-77
2021/04/30 08:36:09;;;;;;;16.85;15.18;;;9.30;90.80;;;;;;4988717;28;20245;-78
2021/04/30 08:38:36;;;;;;;22.08;16.50;;;9.30;90.20;;;;;;4991300;28;20229;-77
2021/04/30 08:41:07;;;;;;;18.67;16.20;;;9.20;90.30;;;;;;4990639;28;20289;-78
2021/04/30 08:43:37;;;;;;;23.45;16.48;;;9.20;90.70;;;;;;4996678;28;20214;-77
2021/04/30 08:46:04;;;;;;;25.65;16.73;;;9.20;90.80;;;;;;4993808;28;20285;-78
2021/04/30 08:48:37;;;;;;;19.52;16.35;;;9.20;90.60;;;;;;4991077;28;20214;-78
2021/04/30 08:51:04;;;;;;;21.67;16.15;;;9.30;90.40;;;;;;4990025;28;20194;-78
2021/04/30 08:53:31;;;;;;;20.67;16.52;;;9.30;90.50;;;;;;4974459;28;20320;-80
2021/04/30 08:56:01;;;;;;;19.50;16.45;;;9.30;90.20;;;;;;4990371;28;20210;-76
2021/04/30 08:58:33;;;;;;;20.85;17.20;;;9.40;89.40;;;;;;4991343;28;20837;-79
2021/04/30 09:01:09;;;;;;;22.13;16.52;;;9.40;90.00;;;;;;4976195;28;20209;-78
2021/04/30 09:03:36;;;;;;;19.15;15.98;;;9.30;90.00;;;;;;4984665;28;20223;-78
2021/04/30 09:06:06;;;;;;;18.40;16.48;;;9.30;90.10;;;;;;4989388;28;20237;-78
2021/04/30 09:08:50;;;;;;;20.63;16.80;;;9.40;89.90;;;;;;4990322;28;20207;-77
2021/04/30 09:11:35;;;;;;;19.27;17.17;;;9.40;89.20;;;;;;4990448;28;20600;-78
2021/04/30 09:14:21;;;;;;;23.85;16.92;;;9.50;89.50;;;;;;4990497;28;20253;-77
2021/04/30 09:17:05;;;;;;;20.92;15.02;;;9.70;89.60;;;;;;4990879;28;20293;-78
2021/04/30 09:19:51;;;;;;;19.08;14.48;;;9.80;87.40;;;;;;4987861;28;20210;-77
2021/04/30 09:22:36;;;;;;;20.02;15.23;;;9.90;86.70;;;;;;4968975;28;20215;-76
2021/04/30 09:25:12;;;;;;;23.30;15.90;;;9.90;85.10;;;;;;4989556;28;20210;-77
2021/04/30 09:27:50;;;;;;;20.70;16.45;;;9.90;86.80;;;;;;4988992;28;20289;-77
2021/04/30 09:30:32;;;;;;;21.42;16.20;;;10.00;85.00;;;;;;4991787;28;20186;-77
2021/04/30 09:33:04;;;;;;;16.67;14.25;;;10.10;83.30;;;;;;4992024;28;20226;-77
2021/04/30 09:35:44;;;;;;;25.20;16.73;;;10.20;83.60;;;;;;4985693;28;20214;-78
2021/04/30 09:38:17;;;;;;;18.65;16.33;;;10.30;83.60;;;;;;4991745;28;20214;-78
2021/04/30 09:40:49;;;;;;;23.65;16.50;;;10.40;83.00;;;;;;4990189;28;20234;-77
2021/04/30 09:43:19;;;;;;;19.60;14.73;;;10.40;81.20;;;;;;4991494;28;20223;-77
2021/04/30 09:45:46;;;;;;;18.88;16.40;;;10.40;80.60;;;;;;4991403;28;20214;-78
2021/04/30 09:48:14;;;;;;;23.20;16.45;;;10.50;80.60;;;;;;4991069;28;20248;-77
2021/04/30 09:50:43;;;;;;;22.90;17.30;;;10.50;81.00;;;;;;4981811;28;20297;-77
2021/04/30 09:53:13;;;;;;;26.40;16.13;;;10.50;82.10;;;;;;4990919;28;20221;-79
2021/04/30 09:55:51;;;;;;;17.80;14.25;;;10.50;82.00;;;;;;4989441;28;20693;-77
2021/04/30 09:58:19;;;;;;;19.63;15.18;;;10.60;80.10;;;;;;4990955;28;20709;-79
2021/04/30 10:00:50;;;;;;;21.55;16.65;;;10.80;77.90;;;;;;4991004;28;20207;-76
2021/04/30 10:03:20;;;;;;;20.73;16.60;;;10.90;79.10;;;;;;4991563;28;20218;-78
2021/04/30 10:06:20;;;;;;;19.50;16.10;;;11.10;78.10;;;;;;4989170;28;20235;-78
2021/04/30 10:09:25;;;;;;;21.83;15.70;;;11.30;76.20;;;;;;4993925;28;20218;-77
2021/04/30 10:11:51;;;;;;;19.83;17.50;;;11.50;77.30;;;;;;4993748;28;20245;-79
2021/04/30 10:14:23;;;;;;;16.77;15.17;;;11.70;74.80;;;;;;4995770;28;20437;-76
2021/04/30 10:16:51;;;;;;;18.57;16.50;;;11.70;72.70;;;;;;4995302;28;20489;-77
2021/04/30 10:19:19;;;;;;;17.60;15.43;;;11.70;73.70;;;;;;4993793;28;20529;-78
2021/04/30 10:21:49;;;;;;;19.30;16.97;;;11.90;75.10;;;;;;4975418;28;20833;-79
2021/04/30 10:24:25;;;;;;;18.17;15.73;;;12.20;71.60;;;;;;4994634;28;20449;-78
2021/04/30 10:26:56;;;;;;;22.60;17.00;;;12.30;69.70;;;;;;4992467;28;20842;-77
2021/04/30 10:29:28;;;;;;;24.07;17.13;;;12.30;71.80;;;;;;4995607;28;20497;-78
2021/04/30 10:32:00;;;;;;;19.93;17.30;;;12.40;70.30;;;;;;4995064;28;20495;-77
2021/04/30 10:34:32;;;;;;;23.87;18.73;;;12.20;69.00;;;;;;4975015;28;20443;-78
2021/04/30 10:37:03;;;;;;;21.37;18.50;;;12.10;70.50;;;;;;4984582;28;20460;-78
2021/04/30 10:39:38;;;;;;;25.00;17.63;;;12.00;71.30;;;;;;4994939;28;20955;-77
2021/04/30 10:42:17;;;;;;;21.73;18.90;;;12.00;70.80;;;;;;4993118;28;20524;-78
2021/04/30 10:44:56;;;;;;;22.23;17.30;;;12.10;71.00;;;;;;4991507;28;20433;-78
2021/04/30 10:47:24;;;;;;;20.37;16.77;;;12.20;70.20;;;;;;4992653;28;20458;-79
2021/04/30 10:50:15;;;;;;;18.70;16.80;;;12.50;70.40;;;;;;4990542;28;20454;-78
2021/04/30 10:52:43;;;;;;;18.20;16.17;;;12.60;68.90;;;;;;4991052;28;20508;-78
2021/04/30 10:55:17;;;;;;;21.03;18.03;;;12.30;68.40;;;;;;4990719;28;20430;-78
2021/04/30 10:57:52;;;;;;;19.17;17.17;;;12.40;69.20;;;;;;4992185;28;20457;-76
2021/04/30 11:00:37;;;;;;;19.40;17.27;;;12.60;69.60;;;;;;4994433;28;20459;-76
2021/04/30 11:03:18;;;;;;;19.83;16.97;;;12.50;70.00;;;;;;4991609;28;20473;-79
2021/04/30 11:06:04;;;;;;;24.10;17.83;;;12.60;69.90;;;;;;4980495;28;20978;-78
2021/04/30 11:08:54;;;;;;;22.80;16.97;;;12.60;69.30;;;;;;4986065;28;20472;-80
2021/04/30 11:11:53;;;;;;;19.83;15.70;;;12.60;68.30;;;;;;4989065;28;20497;-78
2021/04/30 11:14:37;;;;;;;23.83;17.63;;;12.80;67.30;;;;;;4977436;28;20461;-79
2021/04/30 11:17:05;;;;;;;20.13;17.03;;;12.80;68.30;;;;;;4992726;28;20449;-77
2021/04/30 11:19:44;;;;;;;23.00;17.70;;;12.90;68.70;;;;;;4992122;28;20544;-80
2021/04/30 11:22:14;;;;;;;21.43;17.70;;;12.90;72.20;;;;;;4992664;28;20465;-80
2021/04/30 11:24:42;;;;;;;20.27;17.30;;;12.90;68.30;;;;;;4992785;28;20430;-78
2021/04/30 11:27:11;;;;;;;19.10;17.10;;;12.80;68.80;;;;;;4975120;28;21015;-78
2021/04/30 11:29:39;;;;;;;22.27;17.90;;;12.80;69.40;;;;;;4992616;28;20935;-78
2021/04/30 11:32:25;;;;;;;22.60;18.17;;;12.80;68.40;;;;;;4976451;28;20462;-78
2021/04/30 11:35:02;;;;;;;23.80;17.47;;;12.60;69.00;;;;;;4993298;28;20824;-76
2021/04/30 11:37:34;;;;;;;21.37;18.20;;;12.60;69.90;;;;;;4972203;28;20876;-78
2021/04/30 11:40:20;;;;;;;23.57;18.17;;;12.50;69.50;;;;;;4990067;28;20466;-78
2021/04/30 11:42:48;;;;;;;22.27;18.30;;;12.50;71.40;;;;;;4993438;28;20488;-78
2021/04/30 11:45:14;;;;;;;20.40;18.20;;;12.60;69.80;;;;;;4993737;28;20441;-77
2021/04/30 11:47:41;;;;;;;20.70;18.40;;;12.60;70.50;;;;;;4991639;28;20466;-77
2021/04/30 11:50:19;;;;;;;23.23;17.47;;;12.80;69.40;;;;;;4992500;28;20457;-79
2021/04/30 11:52:48;;;;;;;20.60;18.50;;;12.90;70.10;;;;;;4989832;28;20469;-75
2021/04/30 11:55:21;;;;;;;19.60;17.03;;;12.90;69.50;;;;;;4990308;28;20454;-77
2021/04/30 11:57:59;;;;;;;18.80;16.90;;;12.90;69.10;;;;;;4987673;28;20547;-76
2021/04/30 12:00:31;;;;;;;23.27;17.97;;;13.00;66.60;;;;;;4993575;28;20488;-79
2021/04/30 12:03:03;;;;;;;20.17;17.73;;;12.90;66.40;;;;;;4975517;28;20501;-78
2021/04/30 12:05:31;;;;;;;23.20;18.50;;;12.80;67.50;;;;;;4992246;28;21251;-78
2021/04/30 12:07:59;;;;;;;28.43;18.60;;;12.80;69.30;;;;;;4991810;28;20468;-79
2021/04/30 12:10:29;;;;;;;20.60;18.27;;;12.70;69.70;;;;;;4975698;28;20492;-78
2021/04/30 12:12:58;;;;;;;26.07;19.60;;;12.70;70.00;;;;;;4982458;28;20502;-79
2021/04/30 12:15:29;;;;;;;23.20;18.40;;;12.50;69.40;;;;;;4988355;28;20486;-79
2021/04/30 12:17:56;;;;;;;20.70;17.97;;;12.50;68.00;;;;;;4990394;28;20466;-78
2021/04/30 12:20:27;;;;;;;19.97;16.57;;;12.60;68.50;;;;;;4990139;28;20469;-79
2021/04/30 12:22:57;;;;;;;27.50;17.60;;;12.70;68.70;;;;;;4992395;28;20469;-77
2021/04/30 12:25:40;;;;;;;20.90;18.00;;;12.70;68.90;;;;;;4991251;28;20461;-79
2021/04/30 12:28:20;;;;;;;19.10;17.10;;;12.70;68.40;;;;;;4974549;28;20476;-80
2021/04/30 12:30:51;;;;;;;25.37;19.20;;;12.80;66.20;;;;;;4992205;28;20827;-76
2021/04/30 12:33:23;;;;;;;21.40;16.77;;;12.80;66.60;;;;;;4991366;28;20461;-80
2021/04/30 12:36:07;;;;;;;21.13;18.90;;;12.70;67.70;;;;;;4989323;28;20856;-77
2021/04/30 12:38:35;;;;;;;21.97;19.83;;;12.70;68.20;;;;;;4990980;28;20560;-80
2021/04/30 12:41:49;;;;;;;21.77;19.57;;;12.80;70.60;;;;;;4987672;28;20481;-78
2021/04/30 12:48:07;;;;;;;21.90;16.23;;;13.10;69.80;;;;;;4976631;28;20510;-82
2021/04/30 12:50:34;;;;;;;20.40;16.30;;;13.30;68.50;;;;;;4947970;28;20444;-79
2021/04/30 12:53:02;;;;;;;18.50;16.60;;;13.50;65.40;;;;;;4953318;28;20822;-80
2021/04/30 12:55:38;;;;;;;24.87;17.33;;;13.50;63.10;;;;;;4947145;28;21035;-80
2021/04/30 12:58:17;;;;;;;19.93;16.43;;;13.50;62.40;;;;;;4967606;28;20529;-81